createdAt,value
2018-08-24T00:01:00.009Z,28.63
2018-08-24T00:03:30.048Z,28.64
2018-08-24T00:05:59.050Z,28.63
2018-08-24T00:08:28.077Z,28.62
2018-08-24T00:10:57.118Z,28.62
2018-08-24T00:13:26.137Z,28.58
2018-08-24T00:15:55.167Z,28.51
2018-08-24T00:18:24.459Z,28.46
2018-08-24T00:20:53.529Z,28.38
2018-08-24T00:23:22.747Z,28.31
2018-08-24T00:25:51.775Z,28.27
2018-08-24T00:28:21.295Z,28.25
2018-08-24T00:30:50.292Z,28.21
2018-08-24T00:33:19.520Z,28.21
2018-08-24T00:35:48.879Z,28.21
2018-08-24T00:38:18.471Z,28.21
2018-08-24T00:40:49.928Z,28.22
2018-08-24T00:43:19.088Z,28.20
2018-08-24T00:45:48.983Z,28.16
2018-08-24T00:48:18.113Z,28.13
2018-08-24T00:50:47.240Z,28.11
2018-08-24T00:53:16.348Z,28.10
2018-08-24T00:55:45.468Z,28.09
2018-08-24T00:58:14.887Z,28.11
2018-08-24T01:00:45.126Z,28.14
2018-08-24T01:03:14.808Z,28.15
2018-08-24T01:05:43.952Z,28.16
2018-08-24T01:08:13.107Z,28.16
2018-08-24T01:10:42.424Z,28.17
2018-08-24T01:13:15.132Z,28.19
2018-08-24T01:15:51.470Z,28.16
2018-08-24T01:18:21.456Z,28.13
2018-08-24T01:20:52.011Z,28.09
2018-08-24T01:23:23.834Z,28.05
2018-08-24T01:25:53.409Z,28.02
2018-08-24T01:28:22.895Z,27.99
2018-08-24T01:30:52.125Z,27.98
2018-08-24T01:33:21.392Z,27.96
2018-08-24T01:35:50.727Z,27.92
2018-08-24T01:38:19.870Z,27.87
2018-08-24T01:40:49.232Z,27.85
2018-08-24T01:43:18.402Z,27.80
2018-08-24T01:45:47.739Z,27.76
2018-08-24T01:48:16.830Z,27.71
2018-08-24T01:50:45.908Z,27.69
2018-08-24T01:53:15.205Z,27.68
2018-08-24T01:55:44.424Z,27.67
2018-08-24T01:58:13.836Z,27.66
2018-08-24T02:00:42.815Z,27.65
2018-08-24T02:03:11.872Z,27.64
2018-08-24T02:05:41.007Z,27.62
2018-08-24T02:08:10.126Z,27.59
2018-08-24T02:10:39.242Z,27.54
2018-08-24T02:13:13.360Z,27.50
2018-08-24T02:15:45.849Z,27.47
2018-08-24T02:18:20.438Z,27.45
2018-08-24T02:20:54.416Z,27.43
2018-08-24T02:23:23.645Z,27.42
2018-08-24T02:25:52.886Z,27.43
2018-08-24T02:28:22.071Z,27.42
2018-08-24T02:30:52.100Z,27.42
2018-08-24T02:33:21.458Z,27.40
2018-08-24T02:35:50.744Z,27.39
2018-08-24T02:38:20.144Z,27.37
2018-08-24T02:40:49.110Z,27.35
2018-08-24T02:43:18.634Z,27.32
2018-08-24T02:45:47.820Z,27.29
2018-08-24T02:48:17.082Z,27.27
2018-08-24T02:50:46.526Z,27.24
2018-08-24T02:53:15.794Z,27.24
2018-08-24T02:55:45.035Z,27.23
2018-08-24T02:58:14.799Z,27.21
2018-08-24T03:00:50.690Z,27.19
2018-08-24T03:03:19.815Z,27.17
2018-08-24T03:05:48.910Z,27.15
2018-08-24T03:08:17.918Z,27.12
2018-08-24T03:10:47.256Z,27.08
2018-08-24T03:13:17.709Z,27.06
2018-08-24T03:15:46.852Z,27.04
2018-08-24T03:18:16.608Z,27.01
2018-08-24T03:20:47.415Z,27.00
2018-08-24T03:23:16.912Z,26.99
2018-08-24T03:25:46.259Z,26.97
2018-08-24T03:28:15.322Z,26.96
2018-08-24T03:30:44.348Z,26.95
2018-08-24T03:33:13.466Z,26.95
2018-08-24T03:35:42.512Z,26.95
2018-08-24T03:38:11.487Z,26.93
2018-08-24T03:40:41.312Z,26.92
2018-08-24T03:43:10.593Z,26.88
2018-08-24T03:45:39.870Z,26.86
2018-08-24T03:48:09.545Z,26.83
2018-08-24T03:50:38.792Z,26.78
2018-08-24T03:53:07.905Z,26.75
2018-08-24T03:55:38.113Z,26.71
2018-08-24T03:58:08.361Z,26.69
2018-08-24T04:00:37.480Z,26.68
2018-08-24T04:03:07.317Z,26.67
2018-08-24T04:05:36.509Z,26.67
2018-08-24T04:08:05.865Z,26.66
2018-08-24T04:10:35.913Z,26.66
2018-08-24T04:13:05.548Z,26.66
2018-08-24T04:15:35.241Z,26.66
2018-08-24T04:18:04.193Z,26.65
2018-08-24T04:20:33.588Z,26.65
2018-08-24T04:23:02.991Z,26.64
2018-08-24T04:25:32.187Z,26.62
2018-08-24T04:28:01.355Z,26.60
2018-08-24T04:30:30.412Z,26.59
2018-08-24T04:32:59.868Z,26.57
2018-08-24T04:35:28.920Z,26.55
2018-08-24T04:37:58.331Z,26.53
2018-08-24T04:40:27.691Z,26.51
2018-08-24T04:42:57.101Z,26.48
2018-08-24T04:45:26.362Z,26.45
2018-08-24T04:47:55.569Z,26.44
2018-08-24T04:50:24.547Z,26.43
2018-08-24T04:52:53.712Z,26.42
2018-08-24T04:55:23.348Z,26.42
2018-08-24T04:57:53.136Z,26.42
2018-08-24T05:00:22.077Z,26.44
2018-08-24T05:02:51.373Z,26.44
2018-08-24T05:05:20.784Z,26.45
2018-08-24T05:07:49.871Z,26.45
2018-08-24T05:10:18.979Z,26.47
2018-08-24T05:12:48.026Z,26.47
2018-08-24T05:15:17.160Z,26.50
2018-08-24T05:17:46.629Z,26.54
2018-08-24T05:20:15.581Z,26.58
2018-08-24T05:22:44.621Z,26.63
2018-08-24T05:25:13.643Z,26.67
2018-08-24T05:27:43.254Z,26.71
2018-08-24T05:30:12.381Z,26.75
2018-08-24T05:32:41.322Z,26.81
2018-08-24T05:35:10.769Z,26.87
2018-08-24T05:37:39.922Z,26.93
2018-08-24T05:40:09.064Z,26.99
2018-08-24T05:42:38.098Z,27.02
2018-08-24T05:45:07.718Z,27.03
2018-08-24T05:47:36.964Z,27.05
2018-08-24T05:50:06.088Z,27.10
2018-08-24T05:52:35.838Z,27.16
2018-08-24T05:55:05.006Z,27.23
2018-08-24T05:57:34.345Z,27.29
2018-08-24T06:00:03.723Z,27.34
2018-08-24T06:02:32.799Z,27.37
2018-08-24T06:05:02.277Z,27.42
2018-08-24T06:07:31.479Z,27.45
2018-08-24T06:10:00.523Z,27.47
2018-08-24T06:12:29.863Z,27.46
2018-08-24T06:14:59.042Z,27.47
2018-08-24T06:17:33.516Z,27.49
2018-08-24T06:20:02.575Z,27.48
2018-08-24T06:22:32.198Z,27.49
2018-08-24T06:25:01.481Z,27.50
2018-08-24T06:27:30.965Z,27.49
2018-08-24T06:30:00.075Z,27.50
2018-08-24T06:32:29.102Z,27.52
2018-08-24T06:34:58.369Z,27.55
2018-08-24T06:37:27.456Z,27.55
2018-08-24T06:39:57.016Z,27.58
2018-08-24T06:42:26.068Z,27.61
2018-08-24T06:44:55.134Z,27.66
2018-08-24T06:47:24.426Z,27.70
2018-08-24T06:49:53.916Z,27.78
2018-08-24T06:52:23.379Z,27.84
2018-08-24T06:54:53.231Z,27.90
2018-08-24T06:57:22.268Z,27.95
2018-08-24T06:59:51.398Z,27.99
2018-08-24T07:02:20.829Z,28.02
2018-08-24T07:04:49.995Z,28.05
2018-08-24T07:07:19.395Z,28.09
2018-08-24T07:09:48.582Z,28.13
2018-08-24T07:12:17.884Z,28.16
2018-08-24T07:14:47.209Z,28.17
2018-08-24T07:17:20.463Z,28.19
2018-08-24T07:19:49.687Z,28.23
2018-08-24T07:22:19.088Z,28.28
2018-08-24T07:24:48.153Z,28.31
2018-08-24T07:27:17.378Z,28.33
2018-08-24T07:29:46.397Z,28.38
2018-08-24T07:32:15.450Z,28.44
2018-08-24T07:34:44.734Z,28.50
2018-08-24T07:37:13.768Z,28.54
2018-08-24T07:39:43.057Z,28.58
2018-08-24T07:42:12.146Z,28.60
2018-08-24T07:44:46.603Z,28.61
2018-08-24T07:47:15.882Z,28.64
2018-08-24T07:49:45.030Z,28.66
2018-08-24T07:52:14.569Z,28.68
2018-08-24T07:54:43.587Z,28.71
2018-08-24T07:57:12.664Z,28.74
2018-08-24T07:59:41.995Z,28.77
2018-08-24T08:02:11.571Z,28.81
2018-08-24T08:04:40.938Z,28.83
2018-08-24T08:07:10.026Z,28.84
2018-08-24T08:09:39.217Z,28.85
2018-08-24T08:12:08.287Z,28.87
2018-08-24T08:14:37.565Z,28.90
2018-08-24T08:17:06.774Z,28.93
2018-08-24T08:19:35.750Z,28.97
2018-08-24T08:22:06.315Z,29.01
2018-08-24T08:24:35.632Z,29.03
2018-08-24T08:27:05.108Z,29.10
2018-08-24T08:29:39.631Z,29.17
2018-08-24T08:32:08.723Z,29.26
2018-08-24T08:37:24.819Z,29.39
2018-08-24T08:39:58.349Z,29.44
2018-08-24T08:42:27.550Z,29.46
2018-08-24T08:44:56.468Z,29.45
2018-08-24T08:47:25.609Z,29.44
2018-08-24T08:50:01.264Z,29.46
2018-08-24T08:52:30.341Z,29.50
2018-08-24T08:55:00.180Z,29.51
2018-08-24T08:57:29.495Z,29.54
2018-08-24T08:59:59.005Z,29.59
2018-08-24T09:02:29.438Z,29.66
2018-08-24T09:04:58.461Z,29.75
2018-08-24T09:07:27.558Z,29.83
2018-08-24T09:09:57.346Z,29.91
2018-08-24T09:12:26.406Z,30.00
2018-08-24T09:14:55.578Z,30.09
2018-08-24T09:17:30.121Z,30.18
2018-08-24T09:20:04.387Z,30.27
2018-08-24T09:22:38.724Z,30.34
2018-08-24T09:25:12.925Z,30.41
2018-08-24T09:27:46.222Z,30.44
2018-08-24T09:30:15.516Z,30.46
2018-08-24T09:32:44.499Z,30.47
2018-08-24T09:35:13.691Z,30.47
2018-08-24T09:37:42.900Z,30.50
2018-08-24T09:40:12.261Z,30.51
2018-08-24T09:42:41.371Z,30.49
2018-08-24T09:45:10.779Z,30.50
2018-08-24T09:47:45.227Z,30.46
2018-08-24T09:50:19.674Z,30.43
2018-08-24T09:52:53.952Z,30.42
2018-08-24T09:55:23.763Z,30.40
2018-08-24T09:57:52.746Z,30.38
2018-08-24T10:00:24.266Z,30.40
2018-08-24T10:02:57.776Z,30.41
2018-08-24T10:05:32.295Z,30.44
2018-08-24T10:08:12.975Z,30.45
2018-08-24T10:10:42.137Z,30.48
2018-08-24T10:13:11.222Z,30.52
2018-08-24T10:15:40.612Z,30.57
2018-08-24T10:18:10.511Z,30.57
2018-08-24T10:20:40.264Z,30.57
2018-08-24T10:23:09.517Z,30.56
2018-08-24T10:25:39.010Z,30.54
2018-08-24T10:28:08.218Z,30.49
2018-08-24T10:30:37.300Z,30.42
2018-08-24T10:33:06.503Z,30.37
2018-08-24T10:35:35.892Z,30.33
2018-08-24T10:38:05.336Z,30.30
2018-08-24T10:40:34.332Z,30.20
2018-08-24T10:43:03.395Z,30.06
2018-08-24T10:45:32.685Z,29.94
2018-08-24T10:48:02.030Z,29.79
2018-08-24T10:50:31.124Z,29.65
2018-08-24T10:53:00.678Z,29.57
2018-08-24T10:55:29.769Z,29.50
2018-08-24T10:57:59.691Z,29.42
2018-08-24T11:00:28.751Z,29.35
2018-08-24T11:02:57.935Z,29.31
2018-08-24T11:05:27.043Z,29.26
2018-08-24T11:07:56.118Z,29.25
2018-08-24T11:10:25.254Z,29.24
2018-08-24T11:12:54.300Z,29.23
2018-08-24T11:15:23.277Z,29.20
2018-08-24T11:17:57.208Z,29.15
2018-08-24T11:20:26.543Z,29.09
2018-08-24T11:22:55.770Z,29.05
2018-08-24T11:25:24.895Z,29.01
2018-08-24T11:27:54.141Z,28.95
2018-08-24T11:30:24.163Z,28.88
2018-08-24T11:32:53.455Z,28.80
2018-08-24T11:35:22.576Z,28.70
2018-08-24T11:37:51.644Z,28.59
2018-08-24T11:40:20.929Z,28.50
2018-08-24T11:42:51.697Z,28.41
2018-08-24T11:45:21.039Z,28.30
2018-08-24T11:47:50.381Z,28.22
2018-08-24T11:50:20.423Z,28.16
2018-08-24T11:52:49.879Z,28.12
2018-08-24T11:55:18.958Z,28.14
2018-08-24T11:57:48.161Z,28.10
2018-08-24T12:00:17.140Z,28.03
2018-08-24T12:02:46.691Z,28.05
2018-08-24T12:05:15.863Z,28.09
2018-08-24T12:07:45.798Z,28.10
2018-08-24T12:10:14.964Z,28.12
2018-08-24T12:12:44.172Z,28.10
2018-08-24T12:15:13.241Z,28.07
2018-08-24T12:17:42.342Z,28.09
2018-08-24T12:20:12.209Z,28.09
2018-08-24T12:22:41.576Z,28.06
2018-08-24T12:25:10.671Z,28.02
2018-08-24T12:27:39.878Z,27.97
2018-08-24T12:30:09.409Z,27.92
2018-08-24T12:32:38.984Z,27.86
2018-08-24T12:35:08.187Z,27.79
2018-08-24T12:37:43.477Z,27.70
2018-08-24T12:40:12.801Z,27.64
2018-08-24T12:42:42.463Z,27.61
2018-08-24T12:45:11.449Z,27.57
2018-08-24T12:47:40.461Z,27.55
2018-08-24T12:50:10.367Z,27.53
2018-08-24T12:52:39.408Z,27.50
2018-08-24T12:55:08.957Z,27.51
2018-08-24T12:57:38.035Z,27.54
2018-08-24T13:00:07.367Z,27.55
2018-08-24T13:02:36.455Z,27.56
2018-08-24T13:05:05.578Z,27.57
2018-08-24T13:07:34.752Z,27.58
2018-08-24T13:10:03.828Z,27.59
2018-08-24T13:12:33.132Z,27.60
2018-08-24T13:15:02.246Z,27.63
2018-08-24T13:17:31.474Z,27.66
2018-08-24T13:20:00.772Z,27.70
2018-08-24T13:22:30.432Z,27.72
2018-08-24T13:24:59.575Z,27.72
2018-08-24T13:27:28.711Z,27.72
2018-08-24T13:29:57.954Z,27.74
2018-08-24T13:32:27.319Z,27.77
2018-08-24T13:34:56.588Z,27.82
2018-08-24T13:37:25.891Z,27.88
2018-08-24T13:39:54.887Z,27.93
2018-08-24T13:42:24.041Z,27.96
2018-08-24T13:44:53.385Z,28.01
2018-08-24T13:47:22.763Z,28.06
2018-08-24T13:49:51.788Z,28.12
2018-08-24T13:52:20.851Z,28.19
2018-08-24T13:54:50.332Z,28.26
2018-08-24T13:57:19.549Z,28.35
2018-08-24T13:59:49.195Z,28.43
2018-08-24T14:02:18.851Z,28.52
2018-08-24T14:04:48.100Z,28.59
2018-08-24T14:07:17.374Z,28.67
2018-08-24T14:09:46.546Z,28.74
2018-08-24T14:12:15.778Z,28.81
2018-08-24T14:14:44.948Z,28.88
2018-08-24T14:17:14.479Z,28.96
2018-08-24T14:19:43.535Z,29.02
2018-08-24T14:22:12.860Z,29.11
2018-08-24T14:24:42.162Z,29.18
2018-08-24T14:27:11.703Z,29.24
2018-08-24T14:29:40.834Z,29.31
2018-08-24T14:32:10.544Z,29.34
2018-08-24T14:34:39.677Z,29.39
2018-08-24T14:37:08.830Z,29.43
2018-08-24T14:39:38.001Z,29.46
2018-08-24T14:42:07.250Z,29.49
2018-08-24T14:44:36.579Z,29.52
2018-08-24T14:47:06.182Z,29.53
2018-08-24T14:49:35.500Z,29.55
2018-08-24T14:52:04.837Z,29.58
2018-08-24T14:54:34.067Z,29.57
2018-08-24T14:57:03.035Z,29.56
2018-08-24T14:59:31.990Z,29.54
2018-08-24T15:02:01.088Z,29.54
2018-08-24T15:04:30.328Z,29.51
2018-08-24T15:06:59.750Z,29.51
2018-08-24T15:09:29.058Z,29.48
2018-08-24T15:11:58.255Z,29.46
2018-08-24T15:14:27.373Z,29.45
2018-08-24T15:16:56.583Z,29.44
2018-08-24T15:19:25.732Z,29.44
2018-08-24T15:21:55.064Z,29.44
2018-08-24T15:24:24.401Z,29.43
2018-08-24T15:26:53.743Z,29.43
2018-08-24T15:29:23.201Z,29.43
2018-08-24T15:31:52.344Z,29.42
2018-08-24T15:34:22.187Z,29.43
2018-08-24T15:36:51.222Z,29.42
2018-08-24T15:39:20.375Z,29.41
2018-08-24T15:41:49.659Z,29.39
2018-08-24T15:44:21.800Z,29.35
2018-08-24T15:46:51.424Z,29.33
2018-08-24T15:49:21.530Z,29.31
2018-08-24T15:51:50.569Z,29.30
2018-08-24T15:54:19.751Z,29.30
2018-08-24T15:56:48.751Z,29.30
2018-08-24T15:59:18.038Z,29.29
2018-08-24T16:01:47.334Z,29.27
2018-08-24T16:04:16.601Z,29.24
2018-08-24T16:06:45.679Z,29.23
2018-08-24T16:09:15.285Z,29.19
2018-08-24T16:11:44.347Z,29.17
2018-08-24T16:14:13.497Z,29.14
2018-08-24T16:16:42.744Z,29.12
2018-08-24T16:19:12.009Z,29.10
2018-08-24T16:21:41.001Z,29.06
2018-08-24T16:24:09.903Z,29.05
2018-08-24T16:26:39.221Z,29.03
2018-08-24T16:29:08.802Z,29.01
2018-08-24T16:31:38.124Z,28.99
2018-08-24T16:34:07.215Z,28.95
2018-08-24T16:36:36.690Z,28.83
2018-08-24T16:39:08.809Z,28.63
2018-08-24T16:41:38.647Z,28.36
2018-08-24T16:44:08.197Z,28.15
2018-08-24T16:46:42.639Z,27.96
2018-08-24T16:49:11.992Z,27.78
2018-08-24T16:51:41.338Z,27.59
2018-08-24T16:54:10.769Z,27.34
2018-08-24T16:56:39.910Z,26.89
2018-08-24T16:59:09.090Z,26.51
2018-08-24T17:01:38.403Z,26.18
2018-08-24T17:04:07.683Z,25.88
2018-08-24T17:06:38.291Z,25.61
2018-08-24T17:09:09.947Z,25.37
2018-08-24T17:11:39.121Z,25.15
2018-08-24T17:14:08.286Z,24.97
2018-08-24T17:16:37.402Z,24.82
2018-08-24T17:19:06.483Z,24.70
2018-08-24T17:21:35.936Z,24.55
2018-08-24T17:24:05.198Z,24.41
2018-08-24T17:26:35.164Z,24.30
2018-08-24T17:29:04.346Z,24.18
2018-08-24T17:31:33.447Z,24.08
2018-08-24T17:34:02.957Z,23.98
2018-08-24T17:36:32.242Z,23.90
2018-08-24T17:39:01.520Z,23.83
2018-08-24T17:41:31.187Z,23.79
2018-08-24T17:44:00.567Z,23.75
2018-08-24T17:46:29.652Z,23.73
2018-08-24T17:48:59.493Z,23.75
2018-08-24T17:51:28.757Z,23.76
2018-08-24T17:53:57.824Z,23.76
2018-08-24T17:56:27.131Z,23.75
2018-08-24T17:58:56.068Z,23.72
2018-08-24T18:01:25.252Z,23.67
2018-08-24T18:03:54.246Z,23.63
2018-08-24T18:06:23.205Z,23.60
2018-08-24T18:08:52.238Z,23.55
2018-08-24T18:11:21.458Z,23.50
2018-08-24T18:13:50.799Z,23.45
2018-08-24T18:16:20.134Z,23.44
2018-08-24T18:18:49.421Z,23.43
2018-08-24T18:21:18.846Z,23.41
2018-08-24T18:23:47.894Z,23.41
2018-08-24T18:26:17.138Z,23.38
2018-08-24T18:28:46.570Z,23.35
2018-08-24T18:31:15.612Z,23.31
2018-08-24T18:33:45.169Z,23.29
2018-08-24T18:36:14.545Z,23.31
2018-08-24T18:38:43.684Z,23.34
2018-08-24T18:41:13.485Z,23.37
2018-08-24T18:43:42.559Z,23.42
2018-08-24T18:46:11.764Z,23.41
2018-08-24T18:48:40.981Z,23.41
2018-08-24T18:51:10.235Z,23.43
2018-08-24T18:53:39.504Z,23.45
2018-08-24T18:56:09.243Z,23.46
2018-08-24T18:58:39.081Z,23.44
2018-08-24T19:01:08.360Z,23.43
2018-08-24T19:03:37.831Z,23.41
2018-08-24T19:06:06.485Z,23.37
2018-08-24T19:08:35.564Z,23.35
2018-08-24T19:11:09.861Z,23.34
2018-08-24T19:13:38.995Z,23.35
2018-08-24T19:16:08.504Z,23.36
2018-08-24T19:18:43.166Z,23.34
2018-08-24T19:21:17.465Z,23.32
2018-08-24T19:23:46.840Z,23.34
2018-08-24T19:26:15.815Z,23.37
2018-08-24T19:28:49.885Z,23.40
2018-08-24T19:31:19.057Z,23.38
2018-08-24T19:33:48.170Z,23.34
2018-08-24T19:36:17.348Z,23.33
2018-08-24T19:38:46.804Z,23.27
2018-08-24T19:41:20.900Z,23.28
2018-08-24T19:43:50.035Z,23.30
2018-08-24T19:46:19.736Z,23.32
2018-08-24T19:48:53.779Z,23.31
2018-08-24T19:51:22.862Z,23.30
2018-08-24T19:53:51.919Z,23.28
2018-08-24T19:56:21.054Z,23.28
2018-08-24T19:58:55.931Z,23.29
2018-08-24T20:01:25.123Z,23.31
2018-08-24T20:03:55.528Z,23.33
2018-08-24T20:06:29.869Z,23.35
2018-08-24T20:09:04.196Z,23.41
2018-08-24T20:11:33.267Z,23.45
2018-08-24T20:14:02.430Z,23.50
2018-08-24T20:16:36.612Z,23.55
2018-08-24T20:19:05.681Z,23.58
2018-08-24T20:21:35.040Z,23.61
2018-08-24T20:24:04.941Z,23.62
2018-08-24T20:26:34.150Z,23.61
2018-08-24T20:29:03.383Z,23.58
2018-08-24T20:31:33.061Z,23.55
2018-08-24T20:34:02.724Z,23.54
2018-08-24T20:36:32.046Z,23.52
2018-08-24T20:39:01.120Z,23.51
2018-08-24T20:41:30.052Z,23.50
2018-08-24T20:43:59.290Z,23.50
2018-08-24T20:46:28.467Z,23.52
2018-08-24T20:48:57.470Z,23.50
2018-08-24T20:51:26.527Z,23.46
2018-08-24T20:53:55.673Z,23.45
2018-08-24T20:56:24.676Z,23.41
2018-08-24T20:58:53.488Z,23.35
2018-08-24T21:01:22.475Z,23.31
2018-08-24T21:03:51.611Z,23.27
2018-08-24T21:06:24.388Z,23.20
2018-08-24T21:08:53.749Z,23.14
2018-08-24T21:11:23.124Z,23.12
2018-08-24T21:13:52.294Z,23.08
2018-08-24T21:16:21.434Z,23.06
2018-08-24T21:18:50.693Z,23.02
2018-08-24T21:21:19.916Z,22.99
2018-08-24T21:23:48.990Z,22.99
2018-08-24T21:26:18.246Z,22.99
2018-08-24T21:28:47.710Z,23.01
2018-08-24T21:31:16.800Z,22.98
2018-08-24T21:33:46.145Z,22.97
2018-08-24T21:36:15.315Z,22.94
2018-08-24T21:38:44.804Z,22.93
2018-08-24T21:41:14.075Z,22.92
2018-08-24T21:43:43.120Z,22.92
2018-08-24T21:46:12.635Z,22.91
2018-08-24T21:48:41.729Z,22.92
2018-08-24T21:51:11.050Z,22.93
2018-08-24T21:53:40.019Z,22.93
2018-08-24T21:56:09.441Z,22.94
2018-08-24T21:58:38.500Z,22.95
2018-08-24T22:01:07.629Z,22.95
2018-08-24T22:03:37.052Z,22.95
2018-08-24T22:06:06.007Z,22.97
2018-08-24T22:08:35.052Z,22.96
2018-08-24T22:11:04.723Z,22.94
2018-08-24T22:13:33.963Z,22.94
2018-08-24T22:16:03.413Z,22.92
2018-08-24T22:18:32.587Z,22.91
2018-08-24T22:21:01.612Z,22.91
2018-08-24T22:23:30.686Z,22.92
2018-08-24T22:26:00.296Z,22.91
2018-08-24T22:28:29.408Z,22.90
2018-08-24T22:30:58.437Z,22.87
2018-08-24T22:33:27.503Z,22.85
2018-08-24T22:35:56.539Z,22.84
2018-08-24T22:38:26.035Z,22.79
2018-08-24T22:40:55.215Z,22.74
2018-08-24T22:43:29.571Z,22.68
2018-08-24T22:45:58.892Z,22.62
2018-08-24T22:48:27.960Z,22.57
2018-08-24T22:50:57.292Z,22.55
2018-08-24T22:53:26.280Z,22.55
2018-08-24T22:55:55.598Z,22.53
2018-08-24T22:58:24.674Z,22.50
2018-08-24T23:00:54.076Z,22.47
2018-08-24T23:03:23.102Z,22.42
2018-08-24T23:05:52.292Z,22.39
2018-08-24T23:08:21.387Z,22.37
2018-08-24T23:10:50.487Z,22.36
2018-08-24T23:13:20.957Z,22.36
2018-08-24T23:15:50.061Z,22.32
2018-08-24T23:18:19.586Z,22.28
2018-08-24T23:20:48.830Z,22.24
2018-08-24T23:23:18.279Z,22.19
2018-08-24T23:25:47.416Z,22.14
2018-08-24T23:28:16.853Z,22.13
2018-08-24T23:30:46.564Z,22.10
2018-08-24T23:33:15.769Z,22.07
2018-08-24T23:35:45.229Z,22.06
2018-08-24T23:38:14.390Z,22.04
2018-08-24T23:40:43.631Z,22.01
2018-08-24T23:43:12.783Z,21.97
2018-08-24T23:45:41.775Z,21.94
2018-08-24T23:48:11.221Z,21.94
2018-08-24T23:50:41.491Z,21.90
2018-08-24T23:53:10.659Z,21.88
2018-08-24T23:55:39.677Z,21.83
2018-08-24T23:58:08.957Z,21.80
